Aviation Digital Data Service (ADDS)

Output produced by METARs form (1541 UTC 19 January 2019)
found at http://www.aviationweather.gov/metar/data/
 
METAR text: SKBO 191500Z 10008KT 050V150 9999 BKN017 17/09 A3037
Conditions at: SKBO (BOGOTA/ELDORADO , CO) observed 1500 UTC 19 January 2019
Temperature: 17.0°C (63°F)
Dewpoint: 9.0°C (48°F) [RH = 59%]
Pressure (altimeter): 30.37 inches Hg (1028.5 mb)
Winds: from the E (100 degrees) at 9 MPH (8 knots; 4.1 m/s)
Visibility: 6 or more miles (10+ km)
Ceiling: 1700 feet AGL
Clouds: broken clouds at 1700 feet AGL
Weather: no significant weather observed at this time

METAR text: SKBO 191400Z 05006KT 9999 BKN017 16/09 A3036
Conditions at: SKBO (BOGOTA/ELDORADO , CO) observed 1400 UTC 19 January 2019
Temperature: 16.0°C (61°F)
Dewpoint: 9.0°C (48°F) [RH = 63%]
Pressure (altimeter): 30.36 inches Hg (1028.2 mb)
Winds: from the NE (50 degrees) at 7 MPH (6 knots; 3.1 m/s)
Visibility: 6 or more miles (10+ km)
Ceiling: 1700 feet AGL
Clouds: broken clouds at 1700 feet AGL
Weather: no significant weather observed at this time

METAR text: SKBO 191300Z 36003KT 9999 FEW015 BKN023 14/10 A3035
Conditions at: SKBO (BOGOTA/ELDORADO , CO) observed 1300 UTC 19 January 2019
Temperature: 14.0°C (57°F)
Dewpoint: 10.0°C (50°F) [RH = 77%]
Pressure (altimeter): 30.35 inches Hg (1027.9 mb)
Winds: from the N (360 degrees) at 3 MPH (3 knots; 1.5 m/s)
Visibility: 6 or more miles (10+ km)
Ceiling: 2300 feet AGL
Clouds: few clouds at 1500 feet AGL
broken clouds at 2300 feet AGL
Weather: no significant weather observed at this time

METAR text: SKBO 191200Z VRB02KT 9999 SCT023 12/10 A3032
Conditions at: SKBO (BOGOTA/ELDORADO , CO) observed 1200 UTC 19 January 2019
Temperature: 12.0°C (54°F)
Dewpoint: 10.0°C (50°F) [RH = 88%]
Pressure (altimeter): 30.32 inches Hg (1026.8 mb)
Winds: variable direction winds at 2 MPH (2 knots; 1.0 m/s)
Visibility: 6 or more miles (10+ km)
Ceiling: at least 12,000 feet AGL
Clouds: scattered clouds at 2300 feet AGL
Weather: no significant weather observed at this time

METAR text: SKBO 191100Z VRB02KT 9999 BKN020 SCT200 11/09 A3031 REDZ
Conditions at: SKBO (BOGOTA/ELDORADO , CO) observed 1100 UTC 19 January 2019
Temperature: 11.0°C (52°F)
Dewpoint: 9.0°C (48°F) [RH = 87%]
Pressure (altimeter): 30.31 inches Hg (1026.5 mb)
Winds: variable direction winds at 2 MPH (2 knots; 1.0 m/s)
Visibility: 6 or more miles (10+ km)
Ceiling: 2000 feet AGL
Clouds: broken clouds at 2000 feet AGL
scattered clouds at 20000 feet AGL
Weather: no significant weather observed at this time

METAR text: SKBO 191030Z VRB02KT 9999 VCSH BKN020 11/09 A3030 REDZ RMK VCSH/NW
Conditions at: SKBO (BOGOTA/ELDORADO , CO) observed 1030 UTC 19 January 2019
Temperature: 11.0°C (52°F)
Dewpoint: 9.0°C (48°F) [RH = 87%]
Pressure (altimeter): 30.30 inches Hg (1026.2 mb)
Winds: variable direction winds at 2 MPH (2 knots; 1.0 m/s)
Visibility: 6 or more miles (10+ km)
Ceiling: 2000 feet AGL
Clouds: broken clouds at 2000 feet AGL
Weather: VCSH  (showers in vicinity)

METAR text: SKBO 191000Z VRB02KT 9999 VCSH BKN020 11/09 A3029 RMK VCSH/SE
Conditions at: SKBO (BOGOTA/ELDORADO , CO) observed 1000 UTC 19 January 2019
Temperature: 11.0°C (52°F)
Dewpoint: 9.0°C (48°F) [RH = 87%]
Pressure (altimeter): 30.29 inches Hg (1025.8 mb)
Winds: variable direction winds at 2 MPH (2 knots; 1.0 m/s)
Visibility: 6 or more miles (10+ km)
Ceiling: 2000 feet AGL
Clouds: broken clouds at 2000 feet AGL
Weather: VCSH  (showers in vicinity)

METAR text: SKBO 190900Z 36003KT 9999 SCT020 BKN070 11/08 A3028
Conditions at: SKBO (BOGOTA/ELDORADO , CO) observed 0900 UTC 19 January 2019
Temperature: 11.0°C (52°F)
Dewpoint: 8.0°C (46°F) [RH = 82%]
Pressure (altimeter): 30.28 inches Hg (1025.5 mb)
Winds: from the N (360 degrees) at 3 MPH (3 knots; 1.5 m/s)
Visibility: 6 or more miles (10+ km)
Ceiling: 7000 feet AGL
Clouds: scattered clouds at 2000 feet AGL
broken clouds at 7000 feet AGL
Weather: no significant weather observed at this time

METAR text: SKBO 190800Z 05007KT 9999 SCT020 SCT070 11/09 A3028
Conditions at: SKBO (BOGOTA/ELDORADO , CO) observed 0800 UTC 19 January 2019
Temperature: 11.0°C (52°F)
Dewpoint: 9.0°C (48°F) [RH = 87%]
Pressure (altimeter): 30.28 inches Hg (1025.5 mb)
Winds: from the NE (50 degrees) at 8 MPH (7 knots; 3.6 m/s)
Visibility: 6 or more miles (10+ km)
Ceiling: at least 12,000 feet AGL
Clouds: scattered clouds at 2000 feet AGL
scattered clouds at 7000 feet AGL
Weather: no significant weather observed at this time

METAR text: SKBO 190700Z 05005KT 9999 FEW018 SCT070 10/08 A3030
Conditions at: SKBO (BOGOTA/ELDORADO , CO) observed 0700 UTC 19 January 2019
Temperature: 10.0°C (50°F)
Dewpoint: 8.0°C (46°F) [RH = 87%]
Pressure (altimeter): 30.30 inches Hg (1026.2 mb)
Winds: from the NE (50 degrees) at 6 MPH (5 knots; 2.6 m/s)
Visibility: 6 or more miles (10+ km)
Ceiling: at least 12,000 feet AGL
Clouds: few clouds at 1800 feet AGL
scattered clouds at 7000 feet AGL
Weather: no significant weather observed at this time

METAR text: SKBO 190600Z 04007KT 9999 FEW015 10/07 A3032
Conditions at: SKBO (BOGOTA/ELDORADO , CO) observed 0600 UTC 19 January 2019
Temperature: 10.0°C (50°F)
Dewpoint: 7.0°C (45°F) [RH = 82%]
Pressure (altimeter): 30.32 inches Hg (1026.8 mb)
Winds: from the NE (40 degrees) at 8 MPH (7 knots; 3.6 m/s)
Visibility: 6 or more miles (10+ km)
Ceiling: at least 12,000 feet AGL
Clouds: few clouds at 1500 feet AGL
Weather: no significant weather observed at this time

METAR text: SKBO 190500Z 06005KT 9999 FEW017 11/07 A3034
Conditions at: SKBO (BOGOTA/ELDORADO , CO) observed 0500 UTC 19 January 2019
Temperature: 11.0°C (52°F)
Dewpoint: 7.0°C (45°F) [RH = 76%]
Pressure (altimeter): 30.34 inches Hg (1027.5 mb)
Winds: from the ENE (60 degrees) at 6 MPH (5 knots; 2.6 m/s)
Visibility: 6 or more miles (10+ km)
Ceiling: at least 12,000 feet AGL
Clouds: few clouds at 1700 feet AGL
Weather: no significant weather observed at this time

METAR text: SKBO 190400Z 04004KT 9999 FEW017 BKN070 12/08 3036
Conditions at: SKBO (BOGOTA/ELDORADO , CO) observed 0400 UTC 19 January 2019
Temperature: 12.0°C (54°F)
Dewpoint: 8.0°C (46°F) [RH = 76%]
Pressure (altimeter): missing
Winds: from the NE (40 degrees) at 5 MPH (4 knots; 2.1 m/s)
Visibility: 6 or more miles (10+ km)
Ceiling: 7000 feet AGL
Clouds: few clouds at 1700 feet AGL
broken clouds at 7000 feet AGL
Weather: no significant weather observed at this time

METAR text: SKBO 190300Z 03005KT 9999 FEW020 11/07 A3035
Conditions at: SKBO (BOGOTA/ELDORADO , CO) observed 0300 UTC 19 January 2019
Temperature: 11.0°C (52°F)
Dewpoint: 7.0°C (45°F) [RH = 76%]
Pressure (altimeter): 30.35 inches Hg (1027.9 mb)
Winds: from the NNE (30 degrees) at 6 MPH (5 knots; 2.6 m/s)
Visibility: 6 or more miles (10+ km)
Ceiling: at least 12,000 feet AGL
Clouds: few clouds at 2000 feet AGL
Weather: no significant weather observed at this time

METAR text: SKBO 190200Z 07006KT 9999 FEW020 13/07 A3033
Conditions at: SKBO (BOGOTA/ELDORADO , CO) observed 0200 UTC 19 January 2019
Temperature: 13.0°C (55°F)
Dewpoint: 7.0°C (45°F) [RH = 67%]
Pressure (altimeter): 30.33 inches Hg (1027.2 mb)
Winds: from the ENE (70 degrees) at 7 MPH (6 knots; 3.1 m/s)
Visibility: 6 or more miles (10+ km)
Ceiling: at least 12,000 feet AGL
Clouds: few clouds at 2000 feet AGL
Weather: no significant weather observed at this time

METAR text: SKBO 190100Z 05006KT 9999 FEW020 12/08 A3030
Conditions at: SKBO (BOGOTA/ELDORADO , CO) observed 0100 UTC 19 January 2019
Temperature: 12.0°C (54°F)
Dewpoint: 8.0°C (46°F) [RH = 76%]
Pressure (altimeter): 30.30 inches Hg (1026.2 mb)
Winds: from the NE (50 degrees) at 7 MPH (6 knots; 3.1 m/s)
Visibility: 6 or more miles (10+ km)
Ceiling: at least 12,000 feet AGL
Clouds: few clouds at 2000 feet AGL
Weather: no significant weather observed at this time

METAR text: SKBO 190000Z 07008KT 9999 FEW020 14/08 A3028
Conditions at: SKBO (BOGOTA/ELDORADO , CO) observed 0000 UTC 19 January 2019
Temperature: 14.0°C (57°F)
Dewpoint: 8.0°C (46°F) [RH = 67%]
Pressure (altimeter): 30.28 inches Hg (1025.5 mb)
Winds: from the ENE (70 degrees) at 9 MPH (8 knots; 4.1 m/s)
Visibility: 6 or more miles (10+ km)
Ceiling: at least 12,000 feet AGL
Clouds: few clouds at 2000 feet AGL
Weather: no significant weather observed at this time

METAR text: SKBO 182300Z 06007KT 9999 FEW020 SCT200 15/09 A3026
Conditions at: SKBO (BOGOTA/ELDORADO , CO) observed 2300 UTC 18 January 2019
Temperature: 15.0°C (59°F)
Dewpoint: 9.0°C (48°F) [RH = 67%]
Pressure (altimeter): 30.26 inches Hg (1024.8 mb)
Winds: from the ENE (60 degrees) at 8 MPH (7 knots; 3.6 m/s)
Visibility: 6 or more miles (10+ km)
Ceiling: at least 12,000 feet AGL
Clouds: few clouds at 2000 feet AGL
scattered clouds at 20000 feet AGL
Weather: no significant weather observed at this time

METAR text: SKBO 182200Z 12011KT 9999 FEW020 SCT200 19/08 A3026
Conditions at: SKBO (BOGOTA/ELDORADO , CO) observed 2200 UTC 18 January 2019
Temperature: 19.0°C (66°F)
Dewpoint: 8.0°C (46°F) [RH = 49%]
Pressure (altimeter): 30.26 inches Hg (1024.8 mb)
Winds: from the ESE (120 degrees) at 13 MPH (11 knots; 5.7 m/s)
Visibility: 6 or more miles (10+ km)
Ceiling: at least 12,000 feet AGL
Clouds: few clouds at 2000 feet AGL
scattered clouds at 20000 feet AGL
Weather: no significant weather observed at this time

METAR text: SKBO 182100Z 12009KT 9999 FEW020 SCT200 17/08 A3026
Conditions at: SKBO (BOGOTA/ELDORADO , CO) observed 2100 UTC 18 January 2019
Temperature: 17.0°C (63°F)
Dewpoint: 8.0°C (46°F) [RH = 55%]
Pressure (altimeter): 30.26 inches Hg (1024.8 mb)
Winds: from the ESE (120 degrees) at 10 MPH (9 knots; 4.6 m/s)
Visibility: 6 or more miles (10+ km)
Ceiling: at least 12,000 feet AGL
Clouds: few clouds at 2000 feet AGL
scattered clouds at 20000 feet AGL
Weather: no significant weather observed at this time

METAR text: SKBO 182000Z 13010KT 9999 FEW020 SCT080 19/08 A3027
Conditions at: SKBO (BOGOTA/ELDORADO , CO) observed 2000 UTC 18 January 2019
Temperature: 19.0°C (66°F)
Dewpoint: 8.0°C (46°F) [RH = 49%]
Pressure (altimeter): 30.27 inches Hg (1025.1 mb)
Winds: from the SE (130 degrees) at 12 MPH (10 knots; 5.1 m/s)
Visibility: 6 or more miles (10+ km)
Ceiling: at least 12,000 feet AGL
Clouds: few clouds at 2000 feet AGL
scattered clouds at 8000 feet AGL
Weather: no significant weather observed at this time

METAR text: SKBO 181900Z 13010KT 9999 SCT020 BKN080 18/08 A3029
Conditions at: SKBO (BOGOTA/ELDORADO , CO) observed 1900 UTC 18 January 2019
Temperature: 18.0°C (64°F)
Dewpoint: 8.0°C (46°F) [RH = 52%]
Pressure (altimeter): 30.29 inches Hg (1025.8 mb)
Winds: from the SE (130 degrees) at 12 MPH (10 knots; 5.1 m/s)
Visibility: 6 or more miles (10+ km)
Ceiling: 8000 feet AGL
Clouds: scattered clouds at 2000 feet AGL
broken clouds at 8000 feet AGL
Weather: no significant weather observed at this time

METAR text: SKBO 181800Z 12012KT 9999 SCT020 BKN080 18/09 A3032
Conditions at: SKBO (BOGOTA/ELDORADO , CO) observed 1800 UTC 18 January 2019
Temperature: 18.0°C (64°F)
Dewpoint: 9.0°C (48°F) [RH = 56%]
Pressure (altimeter): 30.32 inches Hg (1026.8 mb)
Winds: from the ESE (120 degrees) at 14 MPH (12 knots; 6.2 m/s)
Visibility: 6 or more miles (10+ km)
Ceiling: 8000 feet AGL
Clouds: scattered clouds at 2000 feet AGL
broken clouds at 8000 feet AGL
Weather: no significant weather observed at this time

METAR text: SKBO 181700Z 12011KT 9999 SCT020 SCT080 18/08 A3035
Conditions at: SKBO (BOGOTA/ELDORADO , CO) observed 1700 UTC 18 January 2019
Temperature: 18.0°C (64°F)
Dewpoint: 8.0°C (46°F) [RH = 52%]
Pressure (altimeter): 30.35 inches Hg (1027.9 mb)
Winds: from the ESE (120 degrees) at 13 MPH (11 knots; 5.7 m/s)
Visibility: 6 or more miles (10+ km)
Ceiling: at least 12,000 feet AGL
Clouds: scattered clouds at 2000 feet AGL
scattered clouds at 8000 feet AGL
Weather: no significant weather observed at this time

METAR text: SKBO 181600Z 11011KT 9999 BKN020 18/08 A3036
Conditions at: SKBO (BOGOTA/ELDORADO , CO) observed 1600 UTC 18 January 2019
Temperature: 18.0°C (64°F)
Dewpoint: 8.0°C (46°F) [RH = 52%]
Pressure (altimeter): 30.36 inches Hg (1028.2 mb)
Winds: from the ESE (110 degrees) at 13 MPH (11 knots; 5.7 m/s)
Visibility: 6 or more miles (10+ km)
Ceiling: 2000 feet AGL
Clouds: broken clouds at 2000 feet AGL
Weather: no significant weather observed at this time

METAR text: SKBO 181500Z 10005KT 9999 SCT020 17/08 A3037
Conditions at: SKBO (BOGOTA/ELDORADO , CO) observed 1500 UTC 18 January 2019
Temperature: 17.0°C (63°F)
Dewpoint: 8.0°C (46°F) [RH = 55%]
Pressure (altimeter): 30.37 inches Hg (1028.5 mb)
Winds: from the E (100 degrees) at 6 MPH (5 knots; 2.6 m/s)
Visibility: 6 or more miles (10+ km)
Ceiling: at least 12,000 feet AGL
Clouds: scattered clouds at 2000 feet AGL
Weather: no significant weather observed at this time

METAR text: SKBO 181400Z 06006KT 9999 FEW020 14/09 A3038
Conditions at: SKBO (BOGOTA/ELDORADO , CO) observed 1400 UTC 18 January 2019
Temperature: 14.0°C (57°F)
Dewpoint: 9.0°C (48°F) [RH = 72%]
Pressure (altimeter): 30.38 inches Hg (1028.9 mb)
Winds: from the ENE (60 degrees) at 7 MPH (6 knots; 3.1 m/s)
Visibility: 6 or more miles (10+ km)
Ceiling: at least 12,000 feet AGL
Clouds: few clouds at 2000 feet AGL
Weather: no significant weather observed at this time

METAR text: SKBO 181300Z 05007KT 9999 FEW020 13/09 A3037
Conditions at: SKBO (BOGOTA/ELDORADO , CO) observed 1300 UTC 18 January 2019
Temperature: 13.0°C (55°F)
Dewpoint: 9.0°C (48°F) [RH = 77%]
Pressure (altimeter): 30.37 inches Hg (1028.5 mb)
Winds: from the NE (50 degrees) at 8 MPH (7 knots; 3.6 m/s)
Visibility: 6 or more miles (10+ km)
Ceiling: at least 12,000 feet AGL
Clouds: few clouds at 2000 feet AGL
Weather: no significant weather observed at this time

METAR text: SKBO 181200Z 05008KT 9999 FEW020 10/08 A3035
Conditions at: SKBO (BOGOTA/ELDORADO , CO) observed 1200 UTC 18 January 2019
Temperature: 10.0°C (50°F)
Dewpoint: 8.0°C (46°F) [RH = 87%]
Pressure (altimeter): 30.35 inches Hg (1027.9 mb)
Winds: from the NE (50 degrees) at 9 MPH (8 knots; 4.1 m/s)
Visibility: 6 or more miles (10+ km)
Ceiling: at least 12,000 feet AGL
Clouds: few clouds at 2000 feet AGL
Weather: no significant weather observed at this time

METAR text: SKBO 181100Z 05005KT 9999 FEW017 08/05 A3032
Conditions at: SKBO (BOGOTA/ELDORADO , CO) observed 1100 UTC 18 January 2019
Temperature: 8.0°C (46°F)
Dewpoint: 5.0°C (41°F) [RH = 81%]
Pressure (altimeter): 30.32 inches Hg (1026.8 mb)
Winds: from the NE (50 degrees) at 6 MPH (5 knots; 2.6 m/s)
Visibility: 6 or more miles (10+ km)
Ceiling: at least 12,000 feet AGL
Clouds: few clouds at 1700 feet AGL
Weather: no significant weather observed at this time

METAR text: SKBO 181030Z 07007KT 9999 FEW020 10/08 A3032
Conditions at: SKBO (BOGOTA/ELDORADO , CO) observed 1030 UTC 18 January 2019
Temperature: 10.0°C (50°F)
Dewpoint: 8.0°C (46°F) [RH = 87%]
Pressure (altimeter): 30.32 inches Hg (1026.8 mb)
Winds: from the ENE (70 degrees) at 8 MPH (7 knots; 3.6 m/s)
Visibility: 6 or more miles (10+ km)
Ceiling: at least 12,000 feet AGL
Clouds: few clouds at 2000 feet AGL
Weather: no significant weather observed at this time

METAR text: SKBO 181000Z 04008KT 9999 SCT020 SCT200 09/07 A3031
Conditions at: SKBO (BOGOTA/ELDORADO , CO) observed 1000 UTC 18 January 2019
Temperature: 9.0°C (48°F)
Dewpoint: 7.0°C (45°F) [RH = 87%]
Pressure (altimeter): 30.31 inches Hg (1026.5 mb)
Winds: from the NE (40 degrees) at 9 MPH (8 knots; 4.1 m/s)
Visibility: 6 or more miles (10+ km)
Ceiling: at least 12,000 feet AGL
Clouds: scattered clouds at 2000 feet AGL
scattered clouds at 20000 feet AGL
Weather: no significant weather observed at this time

METAR text: SKBO 180900Z 07005KT 9999 BKN020 12/08 A3030
Conditions at: SKBO (BOGOTA/ELDORADO , CO) observed 0900 UTC 18 January 2019
Temperature: 12.0°C (54°F)
Dewpoint: 8.0°C (46°F) [RH = 76%]
Pressure (altimeter): 30.30 inches Hg (1026.2 mb)
Winds: from the ENE (70 degrees) at 6 MPH (5 knots; 2.6 m/s)
Visibility: 6 or more miles (10+ km)
Ceiling: 2000 feet AGL
Clouds: broken clouds at 2000 feet AGL
Weather: no significant weather observed at this time

METAR text: SKBO 180800Z 35003KT 9999 VCSH BKN017 11/10 A3031 RMK VCSH S/NW
Conditions at: SKBO (BOGOTA/ELDORADO , CO) observed 0800 UTC 18 January 2019
Temperature: 11.0°C (52°F)
Dewpoint: 10.0°C (50°F) [RH = 94%]
Pressure (altimeter): 30.31 inches Hg (1026.5 mb)
Winds: from the N (350 degrees) at 3 MPH (3 knots; 1.5 m/s)
Visibility: 6 or more miles (10+ km)
Ceiling: 1700 feet AGL
Clouds: broken clouds at 1700 feet AGL
Weather: VCSH  (showers in vicinity)

METAR text: SKBO 180700Z VRB02KT 9999 VCSH BKN017 12/10 A3032 REDZ
Conditions at: SKBO (BOGOTA/ELDORADO , CO) observed 0700 UTC 18 January 2019
Temperature: 12.0°C (54°F)
Dewpoint: 10.0°C (50°F) [RH = 88%]
Pressure (altimeter): 30.32 inches Hg (1026.8 mb)
Winds: variable direction winds at 2 MPH (2 knots; 1.0 m/s)
Visibility: 6 or more miles (10+ km)
Ceiling: 1700 feet AGL
Clouds: broken clouds at 1700 feet AGL
Weather: VCSH  (showers in vicinity)

METAR text: SKBO 180635Z 14003KT 9999 -DZ SCT017 BKN060 12/10 A3033
Conditions at: SKBO (BOGOTA/ELDORADO , CO) observed 0635 UTC 18 January 2019
Temperature: 12.0°C (54°F)
Dewpoint: 10.0°C (50°F) [RH = 88%]
Pressure (altimeter): 30.33 inches Hg (1027.2 mb)
Winds: from the SE (140 degrees) at 3 MPH (3 knots; 1.5 m/s)
Visibility: 6 or more miles (10+ km)
Ceiling: 6000 feet AGL
Clouds: scattered clouds at 1700 feet AGL
broken clouds at 6000 feet AGL
Weather: -DZ  (light drizzle)

METAR text: SKBO 180610Z 06008KT 9999 4500SE -DZ SCT017 BKN060 12/10 A3035
Conditions at: SKBO (BOGOTA/ELDORADO , CO) observed 0610 UTC 18 January 2019
Temperature: 12.0°C (54°F)
Dewpoint: 10.0°C (50°F) [RH = 88%]
Pressure (altimeter): 30.35 inches Hg (1027.9 mb)
Winds: from the ENE (60 degrees) at 9 MPH (8 knots; 4.1 m/s)
Visibility: 6 or more miles (10+ km)
Ceiling: 6000 feet AGL
Clouds: scattered clouds at 1700 feet AGL
broken clouds at 6000 feet AGL
Weather: -DZ  (light drizzle)

METAR text: SKBO 180600Z 04007KT 9999 VCSH SCT017 BKN060 13/09 A3035 RMKVCSH SE/N
Conditions at: SKBO (BOGOTA/ELDORADO , CO) observed 0600 UTC 18 January 2019
Temperature: 13.0°C (55°F)
Dewpoint: 9.0°C (48°F) [RH = 77%]
Pressure (altimeter): 30.35 inches Hg (1027.9 mb)
Winds: from the NE (40 degrees) at 8 MPH (7 knots; 3.6 m/s)
Visibility: 6 or more miles (10+ km)
Ceiling: 6000 feet AGL
Clouds: scattered clouds at 1700 feet AGL
broken clouds at 6000 feet AGL
Weather: VCSH  (showers in vicinity)

METAR text: SKBO 180500Z 02005KT 9999 SCT017 BKN060 11/09 A3036
Conditions at: SKBO (BOGOTA/ELDORADO , CO) observed 0500 UTC 18 January 2019
Temperature: 11.0°C (52°F)
Dewpoint: 9.0°C (48°F) [RH = 87%]
Pressure (altimeter): 30.36 inches Hg (1028.2 mb)
Winds: from the NNE (20 degrees) at 6 MPH (5 knots; 2.6 m/s)
Visibility: 6 or more miles (10+ km)
Ceiling: 6000 feet AGL
Clouds: scattered clouds at 1700 feet AGL
broken clouds at 6000 feet AGL
Weather: no significant weather observed at this time

METAR text: SKBO 180400Z 02004KT 9999 FEW017 SCT070 11/07 A3038
Conditions at: SKBO (BOGOTA/ELDORADO , CO) observed 0400 UTC 18 January 2019
Temperature: 11.0°C (52°F)
Dewpoint: 7.0°C (45°F) [RH = 76%]
Pressure (altimeter): 30.38 inches Hg (1028.9 mb)
Winds: from the NNE (20 degrees) at 5 MPH (4 knots; 2.1 m/s)
Visibility: 6 or more miles (10+ km)
Ceiling: at least 12,000 feet AGL
Clouds: few clouds at 1700 feet AGL
scattered clouds at 7000 feet AGL
Weather: no significant weather observed at this time

Forecast for: SKBO (BOGOTA/ELDORADO , CO)
Text: TAF SKBO 191100Z 1912/2012 05006KT 9999 FEW020 SCT090
Forecast period: 1200 UTC 19 January 2019 to 1200 UTC 20 January 2019
Forecast type: FROM: standard forecast or significant change
Winds: from the NE (50 degrees) at 7 MPH (6 knots; 3.1 m/s)
Visibility: 6 or more miles 10+ km)
Ceiling: at least 12,000 feet AGL
Clouds: few clouds at 2000 feet AGL
scattered clouds at 9000 feet AGL
Weather: no significant weather forecast for this period
Text: TEMPO 1915/1922 12010KT SCT020 BKN090
Forecast period: 1500 to 2200 UTC 19 January 2019
Forecast type: TEMPORARY: The following changes expected for less than half the time period
Winds: from the ESE (120 degrees) at 12 MPH (10 knots; 5.1 m/s)
Visibility: missing
Ceiling: 9000 feet AGL
Clouds: scattered clouds at 2000 feet AGL
broken clouds at 9000 feet AGL
Weather: no significant weather forecast for this period
Text: PROB40 1919/1920 8000 DZ BKN017 TX20/1919Z TN08/2011Z
Forecast period: 1900 to 2000 UTC 19 January 2019
Forecast type: PROBABLE: 40 percent likelihood of the following during this time
Visibility: 5 miles (8 km)
Ceiling: 1700 feet AGL
Clouds: broken clouds at 1700 feet AGL
Weather: DZ  (moderate drizzle)